Time;durP1;ratioP1;P1;durP2;ratioP2;P2;SDS_P1;SDS_P2;PMS_P1;PMS_P2;Temp;Humidity;BMP_temperature;BMP_pressure;BME280_temperature;BME280_humidity;BME280_pressure;Samples;Min_cycle;Max_cycle;Signal;HPM_P1;HPM_P2
2023/07/03 00:00:42;;;;;;;1999.90;999.90;;;;;;;19.67;100.00;94993.84;5108046;28;20210;-60
2023/07/03 00:03:08;;;;;;;1999.90;999.90;;;;;;;19.64;100.00;94983.69;5108789;28;20168;-59
2023/07/03 00:05:35;;;;;;;1999.90;999.90;;;;;;;19.65;100.00;94976.91;5108027;28;20168;-69
2023/07/03 00:08:00;;;;;;;1999.90;999.90;;;;;;;19.56;100.00;94976.97;5108577;28;20218;-68
2023/07/03 00:10:25;;;;;;;1999.90;999.90;;;;;;;19.57;100.00;94963.88;5108114;28;20171;-69
2023/07/03 00:12:51;;;;;;;1999.90;999.90;;;;;;;19.54;100.00;94960.06;5108119;28;20168;-69
2023/07/03 00:15:16;;;;;;;1999.90;999.90;;;;;;;19.50;100.00;94948.38;5108465;28;20172;-70
2023/07/03 00:17:44;;;;;;;1999.90;999.90;;;;;;;19.52;100.00;94947.91;5108272;28;20180;-69
2023/07/03 00:20:14;;;;;;;1999.90;999.90;;;;;;;19.48;100.00;94945.31;5108335;28;20168;-52
2023/07/03 00:22:41;;;;;;;1999.90;999.90;;;;;;;19.48;100.00;94934.22;5108721;28;20178;-59
2023/07/03 00:25:07;;;;;;;1999.90;999.90;;;;;;;19.47;100.00;94932.69;5107854;28;20233;-60
2023/07/03 00:27:32;;;;;;;1999.90;999.90;;;;;;;19.40;100.00;94927.50;5107670;28;20196;-60
2023/07/03 00:29:58;;;;;;;1999.90;999.90;;;;;;;19.36;100.00;94921.38;5108424;28;20168;-59
2023/07/03 00:32:23;;;;;;;1999.90;999.90;;;;;;;19.30;100.00;94917.72;5107685;28;20176;-59
2023/07/03 00:34:49;;;;;;;1999.90;999.90;;;;;;;19.25;100.00;94893.44;5108254;28;20178;-61
2023/07/03 00:37:15;;;;;;;1999.90;999.90;;;;;;;19.20;100.00;94860.84;5106947;28;20223;-60
2023/07/03 00:39:41;;;;;;;1999.90;999.90;;;;;;;19.16;100.00;94844.41;5108206;28;20239;-59
2023/07/03 00:42:06;;;;;;;1999.90;999.90;;;;;;;19.10;100.00;94817.84;5107621;28;20164;-61
2023/07/03 00:44:31;;;;;;;1999.90;999.90;;;;;;;19.05;100.00;94790.81;5107672;28;20281;-61
2023/07/03 00:46:57;;;;;;;1999.90;999.90;;;;;;;18.99;100.00;94773.31;5107576;28;20168;-61
2023/07/03 00:49:24;;;;;;;1999.90;999.90;;;;;;;18.93;100.00;94745.53;5107530;28;20275;-61
2023/07/03 00:51:53;;;;;;;1999.90;999.90;;;;;;;18.87;100.00;94716.22;5108082;28;20164;-61
2023/07/03 00:54:19;;;;;;;1999.90;999.90;;;;;;;18.77;100.00;94684.31;5107499;28;20172;-61
2023/07/03 00:56:44;;;;;;;1999.90;999.90;;;;;;;18.72;100.00;94658.06;5107477;28;20160;-60
2023/07/03 00:59:10;;;;;;;1999.90;999.90;;;;;;;18.65;100.00;94635.56;5107666;28;20183;-69
2023/07/03 01:02:03;;;;;;;1999.90;999.90;;;;;;;18.51;100.00;94605.84;5107414;28;20164;-70
2023/07/03 01:04:30;;;;;;;1999.90;999.90;;;;;;;18.50;100.00;94584.97;5125483;28;20148;-71
2023/07/03 01:07:09;;;;;;;1999.90;999.90;;;;;;;18.46;100.00;94565.78;5107310;28;20187;-70
2023/07/03 01:09:47;;;;;;;1999.90;999.90;;;;;;;18.47;100.00;94547.22;5107888;28;20163;-69
2023/07/03 01:12:13;;;;;;;1999.90;999.90;;;;;;;18.43;100.00;94546.63;5107643;28;20163;-69
2023/07/03 01:14:41;;;;;;;1999.90;999.90;;;;;;;18.41;100.00;94538.03;5107297;28;20166;-69
2023/07/03 01:17:09;;;;;;;1999.90;999.90;;;;;;;18.39;100.00;94532.97;5107845;28;20186;-60
2023/07/03 01:19:37;;;;;;;1999.90;999.90;;;;;;;18.36;100.00;94535.94;5107198;28;20157;-60
2023/07/03 01:22:10;;;;;;;1999.90;999.90;;;;;;;18.28;100.00;94529.22;5107620;28;20272;-60
2023/07/03 01:24:42;;;;;;;1999.90;999.90;;;;;;;18.23;100.00;94516.81;5107590;28;20160;-59
2023/07/03 01:27:11;;;;;;;1999.90;999.90;;;;;;;18.19;100.00;94512.69;5107125;28;20180;-60
2023/07/03 01:29:39;;;;;;;1999.90;999.90;;;;;;;18.15;100.00;94496.31;5107189;28;20186;-59
2023/07/03 01:32:09;;;;;;;1999.90;999.90;;;;;;;18.14;100.00;94491.25;5107116;28;20187;-59
2023/07/03 01:34:37;;;;;;;1999.90;999.90;;;;;;;18.08;100.00;94471.03;5107055;28;20188;-60
2023/07/03 01:37:04;;;;;;;1999.90;999.90;;;;;;;18.05;100.00;94477.50;5106750;28;20219;-63
2023/07/03 01:39:30;;;;;;;1999.90;999.90;;;;;;;17.98;100.00;94462.06;5107450;28;20164;-61
2023/07/03 01:41:58;;;;;;;1999.90;999.90;;;;;;;17.91;100.00;94454.13;5107528;28;20156;-61
2023/07/03 01:44:23;;;;;;;1999.90;999.90;;;;;;;17.89;100.00;94436.50;5106757;28;20172;-61
2023/07/03 01:46:49;;;;;;;1999.90;999.90;;;;;;;17.87;100.00;94416.88;5107035;28;20160;-61
2023/07/03 01:49:16;;;;;;;1999.90;999.90;;;;;;;17.83;100.00;94399.72;5110632;28;20191;-60
2023/07/03 01:51:58;;;;;;;1999.90;999.90;;;;;;;17.79;100.00;94388.88;5110836;28;20170;-49
2023/07/03 01:54:48;;;;;;;1999.90;999.90;;;;;;;17.76;100.00;94351.13;5111293;28;20227;-54
2023/07/03 01:57:20;;;;;;;1999.90;999.90;;;;;;;17.76;100.00;94344.84;5110712;28;20171;-71
2023/07/03 01:59:48;;;;;;;1999.90;999.90;;;;;;;17.77;100.00;94329.81;5110698;28;20230;-70
2023/07/03 02:02:22;;;;;;;1999.90;999.90;;;;;;;17.79;100.00;94327.31;5110587;28;20182;-70
2023/07/03 02:05:01;;;;;;;1999.90;999.90;;;;;;;17.80;100.00;94335.13;5111183;28;20171;-70
2023/07/03 02:07:29;;;;;;;1999.90;999.90;;;;;;;17.83;100.00;94333.41;5110489;28;20259;-71
2023/07/03 02:09:55;;;;;;;1999.90;999.90;;;;;;;17.86;100.00;94340.75;5111021;28;20167;-71
2023/07/03 02:12:20;;;;;;;1999.90;999.90;;;;;;;17.84;100.00;94337.69;5110190;28;20168;-52
2023/07/03 02:14:45;;;;;;;1999.90;999.90;;;;;;;17.82;100.00;94359.53;5110465;28;20224;-59
2023/07/03 02:17:12;;;;;;;1999.90;999.90;;;;;;;17.79;100.00;94354.94;5110246;28;20171;-60
2023/07/03 02:19:37;;;;;;;1999.90;999.90;;;;;;;17.75;100.00;94365.41;5110314;28;20168;-59
2023/07/03 02:22:03;;;;;;;1999.90;999.90;;;;;;;17.71;100.00;94354.56;5109970;28;20232;-59
2023/07/03 02:24:29;;;;;;;1999.90;999.90;;;;;;;17.66;100.00;94354.47;5110226;28;20231;-59
2023/07/03 02:26:54;;;;;;;1999.90;999.90;;;;;;;17.62;100.00;94351.88;5110168;28;20188;-59
2023/07/03 02:29:20;;;;;;;1999.90;999.90;;;;;;;17.59;100.00;94365.88;5110539;28;20184;-59
2023/07/03 02:31:46;;;;;;;1999.90;999.90;;;;;;;17.57;100.00;94365.56;5110140;28;20160;-61
2023/07/03 02:34:11;;;;;;;1999.90;999.90;;;;;;;17.55;100.00;94370.81;5110092;28;20167;-69
2023/07/03 02:36:37;;;;;;;1999.90;999.90;;;;;;;17.54;100.00;94369.28;5109824;28;20215;-69
2023/07/03 02:39:05;;;;;;;1999.90;999.90;;;;;;;17.52;100.00;94372.50;5109958;28;20205;-69
2023/07/03 02:41:31;;;;;;;1999.90;999.90;;;;;;;17.52;100.00;94366.25;5110342;28;20189;-71
2023/07/03 02:43:57;;;;;;;1999.90;999.90;;;;;;;17.51;100.00;94378.50;5109923;28;20187;-70
2023/07/03 02:46:22;;;;;;;1999.90;999.90;;;;;;;17.49;100.00;94383.75;5109502;28;20227;-70
2023/07/03 02:48:47;;;;;;;1999.90;999.90;;;;;;;17.47;100.00;94386.22;5109759;28;20215;-67
2023/07/03 02:51:13;;;;;;;1999.90;999.90;;;;;;;17.44;100.00;94389.94;5109633;28;20209;-60
2023/07/03 02:53:38;;;;;;;1999.90;999.90;;;;;;;17.38;100.00;94377.97;5110140;28;20235;-59
2023/07/03 02:56:04;;;;;;;1999.90;999.90;;;;;;;17.32;100.00;94371.56;5110156;28;20164;-59
2023/07/03 02:58:29;;;;;;;1999.90;999.90;;;;;;;17.26;100.00;94362.44;5109818;28;20198;-59
2023/07/03 03:00:54;;;;;;;1999.90;999.90;;;;;;;17.26;100.00;94356.91;5108570;28;20167;-59
2023/07/03 03:03:20;;;;;;;1999.90;999.90;;;;;;;17.22;100.00;94350.81;5127207;28;20222;-59
2023/07/03 03:05:45;;;;;;;1999.90;999.90;;;;;;;17.22;100.00;94351.56;5109510;28;20181;-51
2023/07/03 03:08:11;;;;;;;1999.90;999.90;;;;;;;17.22;100.00;94337.75;5109264;28;20183;-53
2023/07/03 03:10:37;;;;;;;1999.90;999.90;;;;;;;17.24;100.00;94343.59;5109354;28;20214;-52
2023/07/03 03:13:02;;;;;;;1999.90;999.90;;;;;;;17.26;100.00;94354.91;5109471;28;20160;-49
2023/07/03 03:15:30;;;;;;;1999.90;999.90;;;;;;;17.32;100.00;94366.06;5109760;28;20163;-48
2023/07/03 03:17:55;;;;;;;1999.90;999.90;;;;;;;17.34;100.00;94377.41;5109751;28;20234;-47
2023/07/03 03:20:21;;;;;;;1999.90;999.90;;;;;;;17.36;100.00;94383.97;5109127;28;20171;-51
2023/07/03 03:22:46;;;;;;;1999.90;999.90;;;;;;;17.41;100.00;94399.91;5108716;28;20164;-47
2023/07/03 03:25:11;;;;;;;1999.90;999.90;;;;;;;17.45;100.00;94408.75;5108712;28;20160;-56
2023/07/03 03:27:37;;;;;;;1999.90;999.90;;;;;;;17.46;100.00;94434.38;5109250;28;20195;-53
2023/07/03 03:30:03;;;;;;;1999.90;999.90;;;;;;;17.47;100.00;94455.22;5109071;28;20175;-53
2023/07/03 03:32:29;;;;;;;1999.90;999.90;;;;;;;17.45;100.00;94471.50;5109341;28;20210;-53
2023/07/03 03:34:55;;;;;;;1999.90;999.90;;;;;;;17.41;100.00;94490.22;5108810;28;20160;-55
2023/07/03 03:37:21;;;;;;;1999.90;999.90;;;;;;;17.40;100.00;94513.50;5109036;28;20203;-55
2023/07/03 03:39:46;;;;;;;1999.90;999.90;;;;;;;17.37;100.00;94528.28;5109399;28;20174;-56
2023/07/03 03:42:11;;;;;;;1999.90;999.90;;;;;;;17.35;100.00;94536.25;5126415;28;20164;-57
2023/07/03 03:44:38;;;;;;;1999.90;999.90;;;;;;;17.34;100.00;94540.25;5109028;28;20259;-59
2023/07/03 03:47:04;;;;;;;1999.90;999.90;;;;;;;17.32;100.00;94537.19;5109165;28;20160;-53
2023/07/03 03:49:29;;;;;;;1999.90;999.90;;;;;;;17.34;100.00;94540.25;5109011;28;20202;-50
2023/07/03 03:51:55;;;;;;;1999.90;999.90;;;;;;;17.33;100.00;94542.22;5108627;28;20231;-50
2023/07/03 03:54:20;;;;;;;1999.90;999.90;;;;;;;17.36;100.00;94546.06;5108406;28;20183;-50
2023/07/03 03:56:46;;;;;;;1999.90;999.90;;;;;;;17.38;100.00;94546.34;5108385;28;20160;-52
2023/07/03 03:59:12;;;;;;;1999.90;999.90;;;;;;;17.41;100.00;94546.22;5108345;28;20160;-52
2023/07/03 04:01:38;;;;;;;1999.90;999.90;;;;;;;17.45;100.00;94535.00;5108346;28;20188;-60
2023/07/03 04:04:04;;;;;;;1999.90;999.90;;;;;;;17.46;100.00;94531.78;5108321;28;20163;-59
2023/07/03 04:06:29;;;;;;;1999.90;999.90;;;;;;;17.47;100.00;94538.06;5109094;28;20175;-59
2023/07/03 04:08:58;;;;;;;1999.90;999.90;;;;;;;17.55;100.00;94561.34;5107838;28;20191;-59
2023/07/03 04:11:28;;;;;;;1999.90;999.90;;;;;;;17.63;100.00;94612.22;5108628;28;20227;-59
2023/07/03 04:13:54;;;;;;;1999.90;999.90;;;;;;;17.71;100.00;94674.97;5108095;28;20214;-60
2023/07/03 04:16:20;;;;;;;1999.90;999.90;;;;;;;17.78;100.00;94748.44;5108540;28;20187;-60
2023/07/03 04:18:45;;;;;;;1999.90;999.90;;;;;;;18.12;100.00;94792.22;5108027;28;20203;-59
2023/07/03 04:21:10;;;;;;;1999.90;999.90;;;;;;;18.27;100.00;94842.84;5107844;28;20235;-51
2023/07/03 04:23:36;;;;;;;1999.90;999.90;;;;;;;18.28;100.00;94827.81;5108469;28;20168;-71
2023/07/03 04:26:02;;;;;;;1999.90;999.90;;;;;;;18.23;100.00;94793.25;5107834;28;20191;-70
2023/07/03 04:28:27;;;;;;;1999.90;999.90;;;;;;;18.26;100.00;94769.44;5107824;28;20207;-70
2023/07/03 04:30:53;;;;;;;1999.90;999.90;;;;;;;18.25;100.00;94762.38;5107791;28;20178;-74
2023/07/03 04:33:18;;;;;;;1999.90;999.90;;;;;;;18.27;100.00;94757.13;5107450;28;20164;-73
2023/07/03 04:35:45;;;;;;;1999.90;999.90;;;;;;;18.31;100.00;94771.53;5107672;28;20249;-74
2023/07/03 04:38:10;;;;;;;1999.90;999.90;;;;;;;18.34;100.00;94789.97;5108231;28;20176;-60
2023/07/03 04:40:36;;;;;;;1999.90;999.90;;;;;;;18.44;100.00;94803.34;5107741;28;20168;-53
2023/07/03 04:43:03;;;;;;;1999.90;999.90;;;;;;;18.56;100.00;94820.94;5107263;28;20196;-60
2023/07/03 04:45:30;;;;;;;1999.90;999.90;;;;;;;18.71;100.00;94839.16;5107888;28;20179;-60
2023/07/03 04:47:55;;;;;;;1999.90;999.90;;;;;;;18.73;100.00;94849.75;5107280;28;20208;-60
2023/07/03 04:50:24;;;;;;;1999.90;999.90;;;;;;;18.78;100.00;94860.94;5107512;28;20179;-60
2023/07/03 04:52:51;;;;;;;1999.90;999.90;;;;;;;18.77;100.00;94870.47;5107542;28;20179;-59
2023/07/03 04:55:17;;;;;;;1999.90;999.90;;;;;;;18.93;100.00;94895.00;5106978;28;20172;-61
2023/07/03 04:57:42;;;;;;;1999.90;999.90;;;;;;;19.16;100.00;94919.16;5107447;28;20179;-71
2023/07/03 05:00:14;;;;;;;1999.90;999.90;;;;;;;19.28;100.00;94950.66;5107380;28;20183;-73
2023/07/03 05:02:40;;;;;;;1999.90;999.90;;;;;;;19.49;100.00;94974.56;5125212;28;20164;-74
2023/07/03 05:05:06;;;;;;;1999.90;999.90;;;;;;;19.65;100.00;95001.06;5107308;28;20217;-72
2023/07/03 05:07:31;;;;;;;1999.90;999.90;;;;;;;19.81;100.00;95022.84;5106950;28;20211;-72
2023/07/03 05:10:00;;;;;;;1999.90;999.90;;;;;;;19.90;100.00;95037.41;5107344;28;20168;-73
2023/07/03 05:12:25;;;;;;;1999.90;999.90;;;;;;;20.01;100.00;95053.50;5106963;28;20176;-72
2023/07/03 05:14:50;;;;;;;1999.90;999.90;;;;;;;20.15;100.00;95070.25;5107318;28;20192;-68
2023/07/03 05:17:16;;;;;;;1999.90;999.90;;;;;;;20.95;100.00;95086.72;5107154;28;20167;-61
2023/07/03 05:19:41;;;;;;;1999.90;999.90;;;;;;;21.46;100.00;95098.19;5107265;28;20164;-59
2023/07/03 05:22:06;;;;;;;1999.90;999.90;;;;;;;21.88;100.00;95116.06;5107079;28;20197;-62
2023/07/03 05:24:32;;;;;;;1999.90;999.90;;;;;;;22.06;100.00;95128.97;5111574;28;20187;-59
2023/07/03 05:26:57;;;;;;;1999.90;999.90;;;;;;;21.86;100.00;95138.03;5111582;28;20195;-59
2023/07/03 05:29:22;;;;;;;1999.90;999.90;;;;;;;22.24;100.00;95143.41;5111682;28;20392;-59
2023/07/03 05:31:48;;;;;;;1999.90;999.90;;;;;;;22.20;100.00;95145.63;5111966;28;20176;-58
2023/07/03 05:34:14;;;;;;;1999.90;999.90;;;;;;;22.36;100.00;95158.22;5111717;28;20202;-59
2023/07/03 05:36:39;;;;;;;1999.90;999.90;;;;;;;22.91;100.00;95149.84;5110613;28;20220;-50
2023/07/03 05:39:04;;;;;;;1999.90;999.90;;;;;;;23.79;100.00;95157.13;5111011;28;20179;-48
2023/07/03 05:41:30;;;;;;;1999.90;999.90;;;;;;;23.66;100.00;95167.13;5110820;28;20167;-50
2023/07/03 05:43:55;;;;;;;1999.90;999.90;;;;;;;23.44;100.00;95166.91;5111542;28;20191;-51
2023/07/03 05:46:20;;;;;;;1999.90;999.90;;;;;;;23.36;100.00;95182.56;5110938;28;20242;-49
2023/07/03 05:48:46;;;;;;;1999.90;999.90;;;;;;;23.32;100.00;95170.84;5111228;28;20196;-49
2023/07/03 05:51:12;;;;;;;1999.90;999.90;;;;;;;23.16;100.00;95174.97;5110698;28;20175;-55
2023/07/03 05:53:37;;;;;;;1999.90;999.90;;;;;;;23.18;100.00;95166.88;5128811;28;20190;-72
2023/07/03 05:56:02;;;;;;;1999.90;999.90;;;;;;;23.03;100.00;95184.94;5110456;28;20168;-62
2023/07/03 05:58:28;;;;;;;1999.90;999.90;;;;;;;23.05;100.00;95182.44;5111067;28;20171;-62
2023/07/03 06:00:54;;;;;;;1999.90;999.90;;;;;;;22.88;100.00;95184.25;5110678;28;20187;-62
2023/07/03 06:03:20;;;;;;;1999.90;999.90;;;;;;;22.87;100.00;95188.31;5111136;28;20249;-62
2023/07/03 06:05:45;;;;;;;1999.90;999.90;;;;;;;22.96;100.00;95199.28;5110515;28;20168;-62
2023/07/03 06:08:11;;;;;;;1999.90;999.90;;;;;;;22.90;100.00;95198.47;5109855;28;20187;-63
2023/07/03 06:10:37;;;;;;;1999.90;999.90;;;;;;;22.79;100.00;95190.00;5110364;28;20171;-60
2023/07/03 06:13:04;;;;;;;1999.90;999.90;;;;;;;22.92;100.00;95199.53;5110474;28;20164;-59
2023/07/03 06:15:30;;;;;;;1999.90;999.90;;;;;;;23.28;100.00;95193.38;5110367;28;20168;-59
2023/07/03 06:17:56;;;;;;;1999.90;999.90;;;;;;;23.59;100.00;95196.22;5110297;28;20178;-59
2023/07/03 06:20:22;;;;;;;1999.90;999.90;;;;;;;23.68;100.00;95200.88;5110706;28;20188;-59
2023/07/03 06:22:47;;;;;;;1999.90;999.90;;;;;;;24.00;100.00;95203.22;5110237;28;20190;-59
2023/07/03 06:25:13;;;;;;;1999.90;999.90;;;;;;;23.96;100.00;95213.09;5110100;28;20168;-59
2023/07/03 06:27:38;;;;;;;1999.90;999.90;;;;;;;23.98;100.00;95204.97;5109931;28;20199;-59
2023/07/03 06:30:05;;;;;;;1999.90;999.90;;;;;;;23.78;100.00;95211.34;5110006;28;20168;-61
2023/07/03 06:32:30;;;;;;;1999.90;999.90;;;;;;;23.62;100.00;95200.03;5109943;28;20172;-59
2023/07/03 06:34:56;;;;;;;1999.90;999.90;;;;;;;23.52;100.00;95207.06;5108771;28;20199;-58
2023/07/03 06:37:21;;;;;;;1999.90;999.90;;;;;;;23.57;100.00;95209.13;5109916;28;20212;-59
2023/07/03 06:39:47;;;;;;;1999.90;999.90;;;;;;;23.61;100.00;95195.72;5110328;28;20175;-59
2023/07/03 06:42:12;;;;;;;1999.90;999.90;;;;;;;23.50;100.00;95198.41;5109903;28;20224;-59
2023/07/03 06:44:37;;;;;;;1999.90;999.90;;;;;;;23.59;100.00;95201.03;5110018;28;20168;-59
2023/07/03 06:47:03;;;;;;;1999.90;999.90;;;;;;;23.64;100.00;95198.28;5110232;28;20164;-67
2023/07/03 06:49:29;;;;;;;1999.90;999.90;;;;;;;23.60;100.00;95199.78;5110153;28;20191;-67
2023/07/03 06:51:56;;;;;;;1999.90;999.90;;;;;;;23.89;100.00;95197.50;5109875;28;20171;-67
2023/07/03 06:54:22;;;;;;;1999.90;999.90;;;;;;;24.02;100.00;95194.34;5110268;28;20173;-67
2023/07/03 06:56:47;;;;;;;1999.90;999.90;;;;;;;24.84;100.00;95210.91;5110306;28;20164;-67
2023/07/03 06:59:13;;;;;;;1999.90;999.90;;;;;;;24.72;94.95;95206.53;5109555;28;20164;-67
2023/07/03 07:01:39;;;;;;;1999.90;999.90;;;;;;;25.02;98.34;95205.66;5109506;28;20187;-66
2023/07/03 07:04:04;;;;;;;1999.90;999.90;;;;;;;25.13;98.12;95199.38;5109463;28;20217;-67
2023/07/03 07:06:30;;;;;;;1999.90;999.90;;;;;;;24.75;95.60;95202.72;5109315;28;20164;-60
2023/07/03 07:08:57;;;;;;;1999.90;999.90;;;;;;;24.26;100.00;95203.16;5109879;28;20196;-52
2023/07/03 07:11:24;;;;;;;1999.90;999.90;;;;;;;24.45;100.00;95202.28;5109673;28;20301;-55
2023/07/03 07:13:51;;;;;;;1999.90;999.90;;;;;;;24.15;100.00;95200.28;5126949;28;20197;-55
2023/07/03 07:16:26;;;;;;;1999.90;999.90;;;;;;;24.32;100.00;95195.56;5109285;28;20171;-54
2023/07/03 07:18:54;;;;;;;1999.90;999.90;;;;;;;24.32;100.00;95201.94;5108816;28;20159;-54
2023/07/03 07:21:19;;;;;;;1999.90;999.90;;;;;;;24.65;100.00;95202.19;5109133;28;20168;-53
2023/07/03 07:23:53;;;;;;;1999.90;999.90;;;;;;;25.03;100.00;95203.63;5108733;28;20174;-55
2023/07/03 07:26:20;;;;;;;1999.90;999.90;;;;;;;25.38;100.00;95199.22;5108851;28;20217;-67
2023/07/03 07:28:45;;;;;;;1999.90;999.90;;;;;;;25.87;99.24;95197.78;5108561;28;20188;-66
2023/07/03 07:31:11;;;;;;;1999.90;999.90;;;;;;;26.10;97.88;95193.72;5109294;28;20167;-68
2023/07/03 07:33:36;;;;;;;1999.90;999.90;;;;;;;26.05;95.75;95197.31;5108870;28;20160;-67
2023/07/03 07:36:01;;;;;;;1999.90;999.90;;;;;;;26.21;97.70;95190.16;5108527;28;20237;-66
2023/07/03 07:38:27;;;;;;;1999.90;999.90;;;;;;;25.80;97.66;95187.06;5108422;28;20190;-66
2023/07/03 07:41:02;;;;;;;1999.90;999.90;;;;;;;25.74;97.33;95183.50;5108813;28;20188;-66
2023/07/03 07:43:28;;;;;;;1999.90;999.90;;;;;;;25.74;100.00;95183.50;5109021;28;20168;-58
2023/07/03 07:45:54;;;;;;;1999.90;999.90;;;;;;;25.90;97.07;95185.56;5108051;28;20237;-59
2023/07/03 07:48:19;;;;;;;1999.90;999.90;;;;;;;25.75;100.00;95184.28;5108100;28;20211;-60
2023/07/03 07:50:45;;;;;;;1999.90;999.90;;;;;;;25.60;98.10;95194.94;5108457;28;20174;-60
2023/07/03 07:53:10;;;;;;;1999.90;999.90;;;;;;;25.02;100.00;95188.13;5109042;28;20167;-61
2023/07/03 07:55:36;;;;;;;1999.90;999.90;;;;;;;24.91;100.00;95186.03;5108523;28;20167;-59
2023/07/03 07:58:02;;;;;;;1999.90;999.90;;;;;;;24.73;100.00;95194.09;5108343;28;20168;-59
2023/07/03 08:00:27;;;;;;;1999.90;999.90;;;;;;;24.39;100.00;95190.31;5108352;28;20194;-58
2023/07/03 08:02:53;;;;;;;1999.90;999.90;;;;;;;24.27;100.00;95201.91;5108671;28;20163;-53
2023/07/03 08:05:19;;;;;;;1999.90;999.90;;;;;;;24.34;100.00;95190.28;5108303;28;20163;-58
2023/07/03 08:07:45;;;;;;;1999.90;999.90;;;;;;;24.36;100.00;95190.56;5108178;28;20184;-58
2023/07/03 08:10:11;;;;;;;1999.90;999.90;;;;;;;24.32;100.00;95185.19;5107992;28;20168;-59
2023/07/03 08:12:36;;;;;;;1999.90;999.90;;;;;;;24.40;100.00;95191.09;5108117;28;20205;-59
2023/07/03 08:15:03;;;;;;;1999.90;999.90;;;;;;;24.62;100.00;95197.56;5108200;28;20168;-58
2023/07/03 08:17:29;;;;;;;1999.90;999.90;;;;;;;25.03;100.00;95186.88;5107708;28;20225;-58
2023/07/03 08:19:54;;;;;;;1999.90;999.90;;;;;;;25.39;93.79;95197.19;5107843;28;20239;-59
2023/07/03 08:22:19;;;;;;;1999.90;999.90;;;;;;;26.10;90.33;95193.72;5107940;28;20168;-58
2023/07/03 08:24:45;;;;;;;1999.90;999.90;;;;;;;26.57;87.00;95198.28;5125657;28;20187;-58
2023/07/03 08:27:10;;;;;;;1999.90;999.90;;;;;;;27.03;84.22;95201.25;5108332;28;20183;-60
2023/07/03 08:29:35;;;;;;;1999.90;999.90;;;;;;;27.24;81.48;95202.44;5125597;28;20194;-58
2023/07/03 08:32:01;;;;;;;1999.90;999.90;;;;;;;27.20;81.15;95198.38;5107822;28;20198;-58
2023/07/03 08:34:26;;;;;;;1999.90;999.90;;;;;;;27.61;79.67;95194.34;5107885;28;20164;-58
2023/07/03 08:36:52;;;;;;;1999.90;999.90;;;;;;;27.06;80.64;95191.78;5107244;28;20247;-59
2023/07/03 08:39:17;;;;;;;1999.90;999.90;;;;;;;26.95;84.93;95194.63;5107812;28;20172;-48
2023/07/03 08:41:56;;;;;;;1999.90;999.90;;;;;;;26.91;82.41;95194.13;5108119;28;20202;-60
2023/07/03 08:44:21;;;;;;;1999.90;999.90;;;;;;;27.41;79.97;95196.75;5108135;28;20178;-60
2023/07/03 08:46:48;;;;;;;1999.90;999.90;;;;;;;26.96;82.40;95195.41;5107622;28;20171;-60
2023/07/03 08:49:16;;;;;;;1999.90;999.90;;;;;;;26.47;84.45;95188.59;5107481;28;20199;-61
2023/07/03 08:51:43;;;;;;;1999.90;999.90;;;;;;;26.32;90.14;95199.31;5107120;28;20168;-60
2023/07/03 08:54:31;;;;;;;1999.90;999.90;;;;;;;26.24;90.06;95192.72;5107843;28;20164;-60
2023/07/03 08:56:57;;;;;;;1999.90;999.90;;;;;;;25.76;92.40;95192.16;5107508;28;20171;-60
2023/07/03 08:59:23;;;;;;;1999.90;999.90;;;;;;;25.42;96.88;95187.75;5107104;28;20163;-72
2023/07/03 09:01:59;;;;;;;1999.90;999.90;;;;;;;25.21;99.54;95192.00;5107916;28;20168;-71
2023/07/03 09:04:37;;;;;;;1999.90;999.90;;;;;;;25.09;100.00;95184.84;5107134;28;20163;-69
2023/07/03 09:07:09;;;;;;;1999.90;999.90;;;;;;;25.06;100.00;95181.03;5107218;28;20164;-69
2023/07/03 09:09:59;;;;;;;1999.90;999.90;;;;;;;25.15;100.00;95194.03;5107921;28;20286;-70
2023/07/03 09:12:34;;;;;;;1999.90;999.90;;;;;;;25.28;96.37;95188.72;5107772;28;20168;-69
2023/07/03 09:15:18;;;;;;;1999.90;999.90;;;;;;;25.39;98.42;95186.00;5107117;28;20167;-59
2023/07/03 09:17:46;;;;;;;1999.90;999.90;;;;;;;25.18;96.59;95193.78;5107656;28;20172;-60
2023/07/03 09:20:14;;;;;;;1999.90;999.90;;;;;;;25.28;95.46;95191.53;5107230;28;20179;-62
2023/07/03 09:22:45;;;;;;;1999.90;999.90;;;;;;;26.67;88.39;95191.16;5107889;28;20172;-60
2023/07/03 09:25:21;;;;;;;1999.90;999.90;;;;;;;27.41;77.52;95202.34;5107208;28;20189;-60
2023/07/03 09:27:51;;;;;;;1999.90;999.90;;;;;;;27.21;76.48;95206.28;5107604;28;20199;-60
2023/07/03 09:30:16;;;;;;;1999.90;999.90;;;;;;;27.22;79.05;95202.22;5106876;28;20176;-60
2023/07/03 09:32:42;;;;;;;1999.90;999.90;;;;;;;27.25;75.69;95206.78;5106853;28;20199;-63
2023/07/03 09:35:15;;;;;;;1999.90;999.90;;;;;;;27.17;76.20;95211.38;5106859;28;20178;-62
2023/07/03 09:37:56;;;;;;;1999.90;999.90;;;;;;;27.02;79.46;95202.50;5106910;28;20172;-63
2023/07/03 09:40:41;;;;;;;1999.90;999.90;;;;;;;26.87;77.77;95204.84;5107379;28;20235;-62
2023/07/03 09:43:15;;;;;;;1999.90;999.90;;;;;;;26.79;77.94;95206.66;5106977;28;20225;-62
2023/07/03 09:45:41;;;;;;;1999.90;999.90;;;;;;;26.84;78.69;95199.53;5107537;28;20205;-61
2023/07/03 09:48:21;;;;;;;1999.90;999.90;;;;;;;26.22;81.17;95203.66;5124617;28;20237;-62
2023/07/03 09:50:47;;;;;;;1999.90;999.90;;;;;;;27.39;77.51;95200.06;5107553;28;20164;-71
2023/07/03 09:53:18;;;;;;;1999.90;999.90;;;;;;;27.93;72.18;95203.09;5106762;28;20234;-56
2023/07/03 09:55:44;;;;;;;1999.90;999.90;;;;;;;27.70;71.76;95205.25;5107483;28;20168;-58
2023/07/03 09:58:15;;;;;;;1999.90;999.90;;;;;;;28.09;70.93;95197.34;5106750;28;20171;-57
2023/07/03 10:00:49;;;;;;;1999.90;999.90;;;;;;;27.11;74.11;95198.66;5106632;28;20168;-58
2023/07/03 10:03:26;;;;;;;1999.90;999.90;;;;;;;27.01;75.42;95205.81;5107290;28;20227;-57
2023/07/03 10:05:53;;;;;;;1999.90;999.90;;;;;;;26.93;76.54;95197.19;5107431;28;20172;-58
2023/07/03 10:08:25;;;;;;;1999.90;999.90;;;;;;;26.60;78.15;95197.28;5107116;28;20203;-58
2023/07/03 10:10:55;;;;;;;1999.90;999.90;;;;;;;26.25;83.87;95199.84;5110879;28;20168;-59
2023/07/03 10:13:24;;;;;;;1999.90;999.90;;;;;;;26.32;83.75;95204.94;5110843;28;20206;-53
2023/07/03 10:15:51;;;;;;;1999.90;999.90;;;;;;;25.99;85.61;95210.53;5128419;28;20213;-54
2023/07/03 10:18:31;;;;;;;1999.90;999.90;;;;;;;25.94;87.35;95208.47;5110338;28;20168;-54
2023/07/03 10:20:58;;;;;;;1999.90;999.90;;;;;;;25.85;90.93;95205.91;5111046;28;20164;-53
2023/07/03 10:23:28;;;;;;;1999.90;999.90;;;;;;;26.04;92.24;95209.75;5110079;28;20228;-54
2023/07/03 10:26:04;;;;;;;1999.90;999.90;;;;;;;27.06;82.03;95200.19;5110396;28;20215;-55
2023/07/03 10:28:36;;;;;;;1999.90;999.90;;;;;;;27.08;80.34;95205.28;5110527;28;20266;-60
2023/07/03 10:31:07;;;;;;;1999.90;999.90;;;;;;;26.45;85.37;95207.22;5110560;28;20164;-59
2023/07/03 10:33:40;;;;;;;1999.90;999.90;;;;;;;25.88;87.57;95210.50;5110338;28;20220;-58
2023/07/03 10:36:10;;;;;;;1999.90;999.90;;;;;;;25.86;93.15;95207.44;5106646;28;20250;-58
2023/07/03 10:38:41;;;;;;;1999.90;999.90;;;;;;;26.17;90.70;95198.81;5106187;28;20169;-58
2023/07/03 10:41:17;;;;;;;1999.90;999.90;;;;;;;26.13;88.67;95195.53;5106266;28;20215;-58
2023/07/03 10:43:53;;;;;;;1999.90;999.90;;;;;;;26.62;97.08;95205.94;5106862;28;20175;-57
2023/07/03 10:46:58;;;;;;;1999.90;999.90;;;;;;;27.26;83.89;95207.53;5106919;28;20165;-57
2023/07/03 10:49:33;;;;;;;1999.90;999.90;;;;;;;27.52;81.08;95196.69;5106781;28;20242;-49
2023/07/03 10:52:19;;;;;;;1999.90;999.90;;;;;;;27.79;79.15;95199.31;5106825;28;20175;-51